NJE011 EGTR-EGLM
Flight info
| Callsign | NJE011 |
|---|---|
| Flight time | 0h 14m |
| Altitude | 3500 |
| Route | BNN |
| Aircraft | C208/L-SDFGR/C |
Departure
| Time | 2026-04-29 09:27 |
|---|---|
| Airport | Elstree Airfield (EGTR) |
Arrival
| Time | 2026-04-29 09:42 |
|---|---|
| Airport | White Waltham Airfield (EGLM) |
| Time | Latitude | Longitude | Altitude | Speed | Heading |
|---|---|---|---|---|---|
| 2026-04-29 09:13 | 51.65485 | -0.32366 | 311 ft | 0 kts | 255° |
| 2026-04-29 09:21 | 51.65484 | -0.32370 | 311 ft | 2 kts | 261° |
| 2026-04-29 09:22 | 51.65488 | -0.32404 | 311 ft | 4 kts | 260° |
| 2026-04-29 09:22 | 51.65472 | -0.32472 | 311 ft | 10 kts | 254° |
| 2026-04-29 09:22 | 51.65467 | -0.32558 | 311 ft | 6 kts | 268° |
| 2026-04-29 09:22 | 51.65472 | -0.32598 | 312 ft | 4 kts | 299° |
| 2026-04-29 09:23 | 51.65489 | -0.32630 | 311 ft | 6 kts | 339° |
| 2026-04-29 09:23 | 51.65533 | -0.32659 | 311 ft | 8 kts | 270° |
| 2026-04-29 09:23 | 51.65520 | -0.32778 | 311 ft | 13 kts | 259° |
| 2026-04-29 09:23 | 51.65504 | -0.32925 | 311 ft | 14 kts | 261° |
| 2026-04-29 09:24 | 51.65491 | -0.33054 | 311 ft | 5 kts | 272° |
| 2026-04-29 09:24 | 51.65521 | -0.33076 | 310 ft | 4 kts | 355° |
| 2026-04-29 09:24 | 51.65531 | -0.33063 | 310 ft | 0 kts | 81° |
| 2026-04-29 09:27 | 51.65562 | -0.32790 | 312 ft | 52 kts | 77° |
| 2026-04-29 09:27 | 51.65620 | -0.32095 | 478 ft | 74 kts | 81° |
| 2026-04-29 09:27 | 51.65707 | -0.31214 | 765 ft | 81 kts | 72° |
| 2026-04-29 09:27 | 51.66203 | -0.30828 | 1087 ft | 105 kts | 354° |
| 2026-04-29 09:28 | 51.66923 | -0.31244 | 1369 ft | 117 kts | 354° |
| 2026-04-29 09:28 | 51.67775 | -0.31625 | 1338 ft | 126 kts | 354° |
| 2026-04-29 09:28 | 51.68605 | -0.32003 | 1331 ft | 122 kts | 355° |
| 2026-04-29 09:28 | 51.69126 | -0.32322 | 1318 ft | 126 kts | 336° |
| 2026-04-29 09:29 | 51.69520 | -0.33626 | 1328 ft | 138 kts | 281° |
| 2026-04-29 09:29 | 51.69885 | -0.36637 | 1319 ft | 136 kts | 290° |
| 2026-04-29 09:29 | 51.70094 | -0.38093 | 1315 ft | 131 kts | 290° |
| 2026-04-29 09:30 | 51.70306 | -0.39507 | 1316 ft | 131 kts | 292° |
| 2026-04-29 09:30 | 51.70522 | -0.40949 | 1317 ft | 135 kts | 292° |
| 2026-04-29 09:30 | 51.70749 | -0.42450 | 1315 ft | 139 kts | 292° |
| 2026-04-29 09:30 | 51.70970 | -0.43973 | 1314 ft | 140 kts | 291° |
| 2026-04-29 09:31 | 51.71194 | -0.45501 | 1315 ft | 141 kts | 291° |
| 2026-04-29 09:31 | 51.71428 | -0.47037 | 1312 ft | 141 kts | 289° |
| 2026-04-29 09:31 | 51.71657 | -0.48576 | 1311 ft | 141 kts | 289° |
| 2026-04-29 09:31 | 51.71886 | -0.50136 | 1303 ft | 144 kts | 288° |
| 2026-04-29 09:32 | 51.72115 | -0.51693 | 1295 ft | 141 kts | 289° |
| 2026-04-29 09:32 | 51.72336 | -0.53188 | 1287 ft | 136 kts | 288° |
| 2026-04-29 09:32 | 51.72383 | -0.54701 | 1268 ft | 139 kts | 249° |
| 2026-04-29 09:32 | 51.71777 | -0.55808 | 1268 ft | 129 kts | 201° |
| 2026-04-29 09:33 | 51.71028 | -0.56543 | 1275 ft | 124 kts | 199° |
| 2026-04-29 09:33 | 51.70275 | -0.57290 | 1176 ft | 130 kts | 201° |
| 2026-04-29 09:33 | 51.69492 | -0.58082 | 1169 ft | 135 kts | 200° |
| 2026-04-29 09:33 | 51.68694 | -0.58881 | 1175 ft | 135 kts | 201° |
| 2026-04-29 09:34 | 51.67908 | -0.59664 | 1276 ft | 129 kts | 199° |
| 2026-04-29 09:34 | 51.67169 | -0.60396 | 1355 ft | 121 kts | 200° |
| 2026-04-29 09:34 | 51.66486 | -0.61080 | 1432 ft | 111 kts | 198° |
| 2026-04-29 09:34 | 51.65816 | -0.61752 | 1457 ft | 117 kts | 200° |
| 2026-04-29 09:35 | 51.65103 | -0.62461 | 1468 ft | 125 kts | 199° |
| 2026-04-29 09:35 | 51.64333 | -0.63223 | 1469 ft | 134 kts | 202° |
| 2026-04-29 09:35 | 51.63556 | -0.64022 | 1476 ft | 130 kts | 201° |
| 2026-04-29 09:35 | 51.62767 | -0.64780 | 1472 ft | 134 kts | 202° |
| 2026-04-29 09:36 | 51.61971 | -0.65577 | 1471 ft | 136 kts | 204° |
| 2026-04-29 09:36 | 51.61179 | -0.66386 | 1463 ft | 132 kts | 204° |
| 2026-04-29 09:36 | 51.60373 | -0.67170 | 1469 ft | 138 kts | 202° |
| 2026-04-29 09:36 | 51.59552 | -0.68000 | 1468 ft | 140 kts | 202° |
| 2026-04-29 09:37 | 51.58718 | -0.68827 | 1470 ft | 143 kts | 201° |
| 2026-04-29 09:37 | 51.57868 | -0.69673 | 1467 ft | 146 kts | 203° |
| 2026-04-29 09:37 | 51.57004 | -0.70537 | 1479 ft | 144 kts | 203° |
| 2026-04-29 09:37 | 51.56160 | -0.71377 | 1464 ft | 144 kts | 204° |
| 2026-04-29 09:38 | 51.55317 | -0.72222 | 1461 ft | 142 kts | 203° |
| 2026-04-29 09:38 | 51.54474 | -0.73054 | 1464 ft | 143 kts | 202° |
| 2026-04-29 09:38 | 51.53654 | -0.73958 | 1420 ft | 143 kts | 212° |
| 2026-04-29 09:38 | 51.52969 | -0.75126 | 1321 ft | 143 kts | 228° |
| 2026-04-29 09:39 | 51.52430 | -0.76436 | 1185 ft | 139 kts | 237° |
| 2026-04-29 09:39 | 51.51970 | -0.77772 | 1101 ft | 135 kts | 237° |
| 2026-04-29 09:39 | 51.51533 | -0.79095 | 1039 ft | 131 kts | 239° |
| 2026-04-29 09:39 | 51.51100 | -0.80386 | 1047 ft | 131 kts | 238° |
| 2026-04-29 09:40 | 51.50647 | -0.81652 | 1133 ft | 131 kts | 236° |
| 2026-04-29 09:40 | 51.50195 | -0.82882 | 1173 ft | 126 kts | 233° |
| 2026-04-29 09:40 | 51.49616 | -0.83792 | 1190 ft | 104 kts | 192° |
| 2026-04-29 09:40 | 51.49046 | -0.83814 | 1174 ft | 62 kts | 127° |
| 2026-04-29 09:41 | 51.48814 | -0.83353 | 1166 ft | 54 kts | 98° |
| 2026-04-29 09:41 | 51.48759 | -0.82781 | 1158 ft | 53 kts | 85° |
| 2026-04-29 09:41 | 51.48764 | -0.82179 | 1117 ft | 55 kts | 82° |
| 2026-04-29 09:41 | 51.48845 | -0.81570 | 1069 ft | 57 kts | 72° |
| 2026-04-29 09:42 | 51.49003 | -0.80995 | 944 ft | 53 kts | 65° |
| 2026-04-29 09:42 | 51.49145 | -0.80520 | 753 ft | 45 kts | 66° |
| 2026-04-29 09:42 | 51.49310 | -0.80045 | 650 ft | 55 kts | 68° |
| 2026-04-29 09:42 | 51.49473 | -0.79475 | 552 ft | 62 kts | 66° |
| 2026-04-29 09:43 | 51.49695 | -0.78722 | 343 ft | 82 kts | 63° |
| 2026-04-29 09:43 | 51.49942 | -0.77907 | 214 ft | 77 kts | 66° |
| 2026-04-29 09:43 | 51.50174 | -0.77158 | 446 ft | 77 kts | 63° |
| 2026-04-29 09:43 | 51.50573 | -0.76483 | 600 ft | 97 kts | 32° |
| 2026-04-29 09:44 | 51.51306 | -0.76604 | 770 ft | 122 kts | 343° |
| 2026-04-29 09:44 | 51.51938 | -0.77536 | 961 ft | 122 kts | 324° |
| 2026-04-29 09:44 | 51.52258 | -0.78772 | 988 ft | 125 kts | 275° |
| 2026-04-29 09:44 | 51.52051 | -0.80117 | 1013 ft | 123 kts | 240° |
| 2026-04-29 09:45 | 51.51640 | -0.81333 | 982 ft | 124 kts | 236° |
| 2026-04-29 09:45 | 51.51163 | -0.82505 | 1041 ft | 127 kts | 230° |
| 2026-04-29 09:45 | 51.50630 | -0.83653 | 1124 ft | 129 kts | 228° |
| 2026-04-29 09:45 | 51.50072 | -0.84785 | 1152 ft | 130 kts | 224° |
| 2026-04-29 09:46 | 51.49463 | -0.85857 | 1182 ft | 126 kts | 205° |
| 2026-04-29 09:46 | 51.48724 | -0.86109 | 1195 ft | 99 kts | 152° |
| 2026-04-29 09:46 | 51.48120 | -0.85779 | 1167 ft | 85 kts | 137° |
| 2026-04-29 09:46 | 51.47851 | -0.85209 | 1132 ft | 56 kts | 93° |
| 2026-04-29 09:47 | 51.47863 | -0.84587 | 1044 ft | 57 kts | 77° |
| 2026-04-29 09:47 | 51.47979 | -0.83972 | 913 ft | 63 kts | 69° |
| 2026-04-29 09:47 | 51.48178 | -0.83257 | 856 ft | 76 kts | 66° |
| 2026-04-29 09:47 | 51.48445 | -0.82474 | 854 ft | 83 kts | 62° |
| 2026-04-29 09:48 | 51.48734 | -0.81706 | 871 ft | 66 kts | 62° |
| 2026-04-29 09:48 | 51.48909 | -0.81236 | 790 ft | 39 kts | 62° |
| 2026-04-29 09:48 | 51.49078 | -0.80828 | 647 ft | 48 kts | 65° |
| 2026-04-29 09:48 | 51.49231 | -0.80353 | 609 ft | 49 kts | 70° |
| 2026-04-29 09:49 | 51.49365 | -0.79836 | 572 ft | 51 kts | 66° |
| 2026-04-29 09:49 | 51.49519 | -0.79299 | 501 ft | 49 kts | 64° |
| 2026-04-29 09:49 | 51.49667 | -0.78838 | 367 ft | 44 kts | 64° |
| 2026-04-29 09:49 | 51.49797 | -0.78394 | 244 ft | 45 kts | 64° |
| 2026-04-29 09:50 | 51.49941 | -0.77912 | 151 ft | 46 kts | 66° |
| 2026-04-29 09:50 | 51.50047 | -0.77550 | 142 ft | 28 kts | 65° |
| 2026-04-29 09:50 | 51.50121 | -0.77298 | 140 ft | 22 kts | 64° |
| 2026-04-29 09:50 | 51.50164 | -0.77151 | 141 ft | 9 kts | 79° |
| 2026-04-29 09:51 | 51.50110 | -0.77109 | 142 ft | 14 kts | 194° |
| 2026-04-29 09:51 | 51.49988 | -0.77173 | 141 ft | 23 kts | 179° |
| 2026-04-29 09:51 | 51.49827 | -0.77209 | 140 ft | 24 kts | 187° |
| 2026-04-29 09:51 | 51.49670 | -0.77255 | 133 ft | 21 kts | 189° |
| 2026-04-29 09:52 | 51.49556 | -0.77273 | 127 ft | 11 kts | 169° |
| 2026-04-29 09:52 | 51.49528 | -0.77292 | 124 ft | 0 kts | 282° |